createdAt,value
2022-08-03T00:02:10.117Z,100.00
2022-08-03T00:04:55.087Z,100.00
2022-08-03T00:07:41.145Z,100.00
2022-08-03T00:10:26.963Z,100.00
2022-08-03T00:13:13.490Z,100.00
2022-08-03T00:15:59.228Z,100.00
2022-08-03T00:18:44.616Z,100.00
2022-08-03T00:21:29.819Z,100.00
2022-08-03T00:24:15.159Z,100.00
2022-08-03T00:27:00.566Z,100.00
2022-08-03T00:30:00.113Z,100.00
2022-08-03T00:32:45.624Z,100.00
2022-08-03T00:35:49.245Z,100.00
2022-08-03T00:38:35.839Z,100.00
2022-08-03T00:41:21.148Z,100.00
2022-08-03T00:44:06.238Z,100.00
2022-08-03T00:46:51.347Z,100.00
2022-08-03T00:49:38.155Z,100.00
2022-08-03T00:52:23.430Z,100.00
2022-08-03T00:55:09.988Z,100.00
2022-08-03T00:57:56.095Z,100.00
2022-08-03T01:00:41.666Z,100.00
2022-08-03T01:03:26.904Z,100.00
2022-08-03T01:06:25.459Z,100.00
2022-08-03T01:09:38.216Z,100.00
2022-08-03T01:12:37.457Z,100.00
2022-08-03T01:15:28.972Z,100.00
2022-08-03T01:18:26.182Z,100.00
2022-08-03T01:21:18.071Z,100.00
2022-08-03T01:24:27.779Z,100.00
2022-08-03T01:27:17.866Z,100.00
2022-08-03T01:30:08.466Z,100.00
2022-08-03T01:33:01.899Z,100.00
2022-08-03T01:35:54.336Z,100.00
2022-08-03T01:38:48.268Z,100.00
2022-08-03T01:41:35.226Z,100.00
2022-08-03T01:44:29.713Z,100.00
2022-08-03T01:47:19.881Z,100.00
2022-08-03T01:50:07.230Z,100.00
2022-08-03T01:52:53.832Z,100.00
2022-08-03T01:55:39.569Z,100.00
2022-08-03T01:58:27.016Z,100.00
2022-08-03T02:01:13.789Z,100.00
2022-08-03T02:04:01.196Z,100.00
2022-08-03T02:07:02.103Z,100.00
2022-08-03T02:09:52.512Z,100.00
2022-08-03T02:12:38.458Z,100.00
2022-08-03T02:15:24.433Z,100.00
2022-08-03T02:18:11.057Z,100.00
2022-08-03T02:20:57.067Z,100.00
2022-08-03T02:23:42.297Z,100.00
2022-08-03T02:26:30.560Z,100.00
2022-08-03T02:29:21.371Z,100.00
2022-08-03T02:32:31.262Z,100.00
2022-08-03T02:35:19.679Z,100.00
2022-08-03T02:38:08.266Z,100.00
2022-08-03T02:40:57.244Z,100.00
2022-08-03T02:44:06.271Z,100.00
2022-08-03T02:46:55.610Z,100.00
2022-08-03T02:49:51.562Z,100.00
2022-08-03T02:52:38.421Z,100.00
2022-08-03T02:55:26.420Z,100.00
2022-08-03T02:58:13.458Z,100.00
2022-08-03T03:00:59.952Z,100.00
2022-08-03T03:03:45.393Z,100.00
2022-08-03T03:06:34.070Z,100.00
2022-08-03T03:09:21.218Z,100.00
2022-08-03T03:12:08.314Z,100.00
2022-08-03T03:14:53.746Z,100.00
2022-08-03T03:17:39.578Z,100.00
2022-08-03T03:20:29.758Z,100.00
2022-08-03T03:23:16.209Z,100.00
2022-08-03T03:26:02.282Z,100.00
2022-08-03T03:28:48.065Z,100.00
2022-08-03T03:31:33.131Z,100.00
2022-08-03T03:34:18.767Z,100.00
2022-08-03T03:37:05.163Z,100.00
2022-08-03T03:39:50.072Z,100.00
2022-08-03T03:42:35.571Z,100.00
2022-08-03T03:45:22.556Z,100.00
2022-08-03T03:48:07.893Z,100.00
2022-08-03T03:50:53.803Z,100.00
2022-08-03T03:53:38.658Z,100.00
2022-08-03T03:56:24.497Z,100.00
2022-08-03T03:59:10.142Z,100.00
2022-08-03T04:01:59.033Z,100.00
2022-08-03T04:05:02.851Z,100.00
2022-08-03T04:08:27.890Z,100.00
2022-08-03T04:11:34.918Z,100.00
2022-08-03T04:14:26.807Z,100.00
2022-08-03T04:17:13.549Z,100.00
2022-08-03T04:20:01.357Z,100.00
2022-08-03T04:22:51.344Z,100.00
2022-08-03T04:25:40.109Z,100.00
2022-08-03T04:28:30.836Z,100.00
2022-08-03T04:31:20.476Z,100.00
2022-08-03T04:34:05.986Z,100.00
2022-08-03T04:36:57.944Z,100.00
2022-08-03T04:39:44.790Z,100.00
2022-08-03T04:42:33.255Z,100.00
2022-08-03T04:45:19.585Z,100.00
2022-08-03T04:48:05.253Z,100.00
2022-08-03T04:50:50.788Z,100.00
2022-08-03T04:53:35.852Z,100.00
2022-08-03T04:56:21.066Z,100.00
2022-08-03T04:59:06.350Z,100.00
2022-08-03T05:01:51.575Z,100.00
2022-08-03T05:04:38.066Z,100.00
2022-08-03T05:07:25.101Z,100.00
2022-08-03T05:10:14.929Z,100.00
2022-08-03T05:13:01.511Z,100.00
2022-08-03T05:15:46.876Z,100.00
2022-08-03T05:18:32.290Z,100.00
2022-08-03T05:21:17.449Z,100.00
2022-08-03T05:24:02.894Z,100.00
2022-08-03T05:26:48.182Z,100.00
2022-08-03T05:29:33.589Z,100.00
2022-08-03T05:32:19.462Z,100.00
2022-08-03T05:36:02.484Z,100.00
2022-08-03T05:38:10.369Z,100.00
2022-08-03T05:41:20.052Z,100.00
2022-08-03T05:44:02.766Z,100.00
2022-08-03T05:46:47.727Z,100.00
2022-08-03T05:49:33.269Z,100.00
2022-08-03T05:52:18.385Z,100.00
2022-08-03T05:55:07.730Z,100.00
2022-08-03T05:57:52.797Z,100.00
2022-08-03T06:00:42.099Z,100.00
2022-08-03T06:03:27.467Z,100.00
2022-08-03T06:06:13.640Z,100.00
2022-08-03T06:08:58.643Z,100.00
2022-08-03T06:11:43.921Z,100.00
2022-08-03T06:14:31.076Z,100.00
2022-08-03T06:17:16.826Z,100.00
2022-08-03T06:20:02.053Z,100.00
2022-08-03T06:22:50.723Z,100.00
2022-08-03T06:25:36.493Z,100.00
2022-08-03T06:28:52.850Z,100.00
2022-08-03T06:31:32.680Z,100.00
2022-08-03T06:34:30.572Z,100.00
2022-08-03T06:37:19.448Z,100.00
2022-08-03T06:40:05.150Z,100.00
2022-08-03T06:42:50.413Z,100.00
2022-08-03T06:45:35.734Z,100.00
2022-08-03T06:48:20.977Z,100.00
2022-08-03T06:51:06.280Z,99.93
2022-08-03T06:53:52.074Z,99.16
2022-08-03T06:56:37.478Z,98.59
2022-08-03T07:00:08.077Z,98.27
2022-08-03T07:02:29.651Z,96.47
2022-08-03T07:05:15.287Z,96.43
2022-08-03T07:08:01.985Z,96.54
2022-08-03T07:10:47.060Z,96.53
2022-08-03T07:13:32.238Z,96.29
2022-08-03T07:16:17.655Z,96.41
2022-08-03T07:19:02.839Z,96.02
2022-08-03T07:21:48.129Z,95.90
2022-08-03T07:24:33.241Z,95.92
2022-08-03T07:27:18.472Z,95.31
2022-08-03T07:30:06.697Z,95.22
2022-08-03T07:32:51.675Z,94.66
2022-08-03T07:35:36.853Z,93.91
2022-08-03T07:38:22.060Z,94.28
2022-08-03T07:41:07.349Z,93.94
2022-08-03T07:43:52.719Z,93.28
2022-08-03T07:46:38.028Z,93.32
2022-08-03T07:49:23.624Z,92.58
2022-08-03T07:52:28.550Z,92.44
2022-08-03T07:55:14.204Z,92.03
2022-08-03T07:58:09.785Z,92.36
2022-08-03T08:00:54.884Z,92.91
2022-08-03T08:03:52.898Z,91.94
2022-08-03T08:06:39.047Z,89.40
2022-08-03T08:09:25.611Z,88.33
2022-08-03T08:12:15.488Z,88.38
2022-08-03T08:15:01.235Z,88.85
2022-08-03T08:17:49.249Z,89.08
2022-08-03T08:20:38.907Z,89.17
2022-08-03T08:23:42.200Z,88.98
2022-08-03T08:26:29.460Z,88.88
2022-08-03T08:29:14.852Z,88.70
2022-08-03T08:32:00.029Z,88.56
2022-08-03T08:34:45.402Z,88.48
2022-08-03T08:37:30.626Z,88.83
2022-08-03T08:40:15.908Z,88.60
2022-08-03T08:43:02.408Z,86.39
2022-08-03T08:45:50.907Z,85.80
2022-08-03T08:48:40.302Z,86.39
2022-08-03T08:51:59.034Z,85.73
2022-08-03T08:54:36.969Z,86.38
2022-08-03T08:57:41.820Z,86.15
2022-08-03T09:00:28.392Z,85.39
2022-08-03T09:03:14.682Z,84.97
2022-08-03T09:06:15.222Z,85.14
2022-08-03T09:09:00.531Z,84.43
2022-08-03T09:12:00.979Z,84.51
2022-08-03T09:15:14.599Z,83.69
2022-08-03T09:17:57.694Z,83.05
2022-08-03T09:20:42.721Z,82.48
2022-08-03T09:24:01.083Z,81.80
2022-08-03T09:26:50.972Z,81.22
2022-08-03T09:29:39.066Z,81.77
2022-08-03T09:32:25.079Z,80.05
2022-08-03T09:35:11.424Z,78.92
2022-08-03T09:38:14.672Z,78.34
2022-08-03T09:41:00.817Z,78.17
2022-08-03T09:43:47.145Z,77.92
2022-08-03T09:46:33.349Z,77.76
2022-08-03T09:49:18.598Z,77.42
2022-08-03T09:52:37.788Z,77.26
2022-08-03T09:56:34.515Z,77.98
2022-08-03T09:58:31.747Z,78.45
2022-08-03T10:01:25.356Z,77.17
2022-08-03T10:04:16.788Z,77.04
2022-08-03T10:07:10.088Z,76.25
2022-08-03T10:09:56.622Z,76.49
2022-08-03T10:12:42.913Z,75.28
2022-08-03T10:16:21.711Z,75.21
2022-08-03T10:18:34.163Z,74.02
2022-08-03T10:21:22.089Z,73.93
2022-08-03T10:24:10.641Z,73.52
2022-08-03T10:27:07.965Z,72.53
2022-08-03T10:29:55.514Z,71.90
2022-08-03T10:32:52.337Z,71.57
2022-08-03T10:35:40.024Z,71.00
2022-08-03T10:38:38.605Z,71.36
2022-08-03T10:41:31.388Z,70.71
2022-08-03T10:44:23.204Z,69.84
2022-08-03T10:47:10.234Z,69.92
2022-08-03T10:49:56.012Z,69.18
2022-08-03T10:53:03.782Z,68.34
2022-08-03T10:56:07.600Z,67.69
2022-08-03T10:58:57.755Z,67.50
2022-08-03T11:01:58.651Z,66.65
2022-08-03T11:04:45.818Z,66.43
2022-08-03T11:07:31.077Z,65.99
2022-08-03T11:10:32.158Z,66.41
2022-08-03T11:13:20.900Z,65.78
2022-08-03T11:16:21.799Z,65.51
2022-08-03T11:19:12.631Z,65.00
2022-08-03T11:21:59.070Z,63.73
2022-08-03T11:24:46.258Z,64.25
2022-08-03T11:27:33.177Z,63.97
2022-08-03T11:30:18.056Z,63.88
2022-08-03T11:33:03.243Z,63.07
2022-08-03T11:35:59.921Z,62.61
2022-08-03T11:39:16.750Z,62.42
2022-08-03T11:42:22.086Z,61.83
2022-08-03T11:45:08.809Z,61.89
2022-08-03T11:47:55.392Z,61.04
2022-08-03T11:50:40.656Z,60.28
2022-08-03T11:53:25.721Z,59.59
2022-08-03T11:56:12.873Z,59.81
2022-08-03T11:59:19.893Z,58.85
2022-08-03T12:02:12.419Z,58.69
2022-08-03T12:05:02.502Z,58.67
2022-08-03T12:08:03.212Z,58.56
2022-08-03T12:10:51.029Z,58.23
2022-08-03T12:14:44.815Z,58.32
2022-08-03T12:16:56.420Z,57.17
2022-08-03T12:19:42.956Z,56.42
2022-08-03T12:22:39.052Z,55.77
2022-08-03T12:25:39.056Z,55.73
2022-08-03T12:28:36.265Z,55.31
2022-08-03T12:31:22.995Z,55.11
2022-08-03T12:34:15.520Z,54.19
2022-08-03T12:37:05.198Z,54.24
2022-08-03T12:40:10.503Z,54.42
2022-08-03T12:42:55.961Z,54.06
2022-08-03T12:45:41.437Z,53.69
2022-08-03T12:48:27.865Z,52.87
2022-08-03T12:51:13.192Z,52.27
2022-08-03T12:53:59.022Z,51.98
2022-08-03T12:57:06.894Z,51.48
2022-08-03T12:59:55.826Z,50.59
2022-08-03T13:02:41.092Z,49.77
2022-08-03T13:05:32.532Z,50.31
2022-08-03T13:08:22.307Z,49.64
2022-08-03T13:11:52.584Z,49.26
2022-08-03T13:14:32.489Z,48.87
2022-08-03T13:17:18.672Z,49.00
2022-08-03T13:20:04.810Z,47.76
2022-08-03T13:22:50.616Z,47.58
2022-08-03T13:25:35.905Z,46.91
2022-08-03T13:28:21.226Z,47.20
2022-08-03T13:31:07.070Z,47.57
2022-08-03T13:33:52.222Z,47.56
2022-08-03T13:37:06.409Z,47.37
2022-08-03T13:39:58.434Z,46.67
2022-08-03T13:42:45.702Z,45.98
2022-08-03T13:45:31.047Z,45.58
2022-08-03T13:48:16.538Z,45.94
2022-08-03T13:51:22.722Z,45.08
2022-08-03T13:54:08.931Z,44.86
2022-08-03T13:56:56.717Z,44.99
2022-08-03T13:59:45.692Z,43.82
2022-08-03T14:02:31.063Z,44.45
2022-08-03T14:05:16.285Z,45.50
2022-08-03T14:08:04.760Z,44.61
2022-08-03T14:10:50.371Z,44.10
2022-08-03T14:13:35.540Z,43.67
2022-08-03T14:16:20.901Z,43.60
2022-08-03T14:19:07.025Z,44.02
2022-08-03T14:22:06.087Z,43.38
2022-08-03T14:24:52.019Z,43.87
2022-08-03T14:27:38.337Z,44.46
2022-08-03T14:30:23.787Z,44.18
2022-08-03T14:33:08.972Z,43.08
2022-08-03T14:35:54.891Z,44.07
2022-08-03T14:38:40.197Z,43.41
2022-08-03T14:41:25.573Z,43.71
2022-08-03T14:44:10.913Z,42.79
2022-08-03T14:46:56.108Z,42.77
2022-08-03T14:50:38.459Z,43.14
2022-08-03T14:52:47.150Z,44.14
2022-08-03T14:55:38.401Z,43.57
2022-08-03T14:58:25.946Z,43.50
2022-08-03T15:02:04.972Z,42.87
2022-08-03T15:04:16.069Z,43.52
2022-08-03T15:07:01.186Z,44.01
2022-08-03T15:09:46.593Z,44.78
2022-08-03T15:12:32.441Z,44.18
2022-08-03T15:15:17.701Z,44.05
2022-08-03T15:18:03.367Z,44.56
2022-08-03T15:20:50.359Z,44.50
2022-08-03T15:23:35.328Z,44.26
2022-08-03T15:26:31.704Z,45.10
2022-08-03T15:30:05.527Z,46.29
2022-08-03T15:32:24.850Z,46.32
2022-08-03T15:35:11.880Z,46.52
2022-08-03T15:37:57.019Z,47.45
2022-08-03T15:40:42.308Z,47.72
2022-08-03T15:43:27.532Z,48.27
2022-08-03T15:46:28.713Z,48.56
2022-08-03T15:49:15.038Z,49.16
2022-08-03T15:52:02.535Z,49.50
2022-08-03T15:54:47.934Z,49.92
2022-08-03T15:57:33.091Z,50.33
2022-08-03T16:00:18.564Z,51.03
2022-08-03T16:03:04.111Z,50.50
2022-08-03T16:05:49.433Z,50.87
2022-08-03T16:08:34.845Z,50.75
2022-08-03T16:11:20.019Z,51.32
2022-08-03T16:14:32.061Z,51.80
2022-08-03T16:17:10.393Z,52.06
2022-08-03T16:19:55.854Z,52.53
2022-08-03T16:22:47.681Z,52.48
2022-08-03T16:25:33.229Z,52.49
2022-08-03T16:28:19.034Z,52.62
2022-08-03T16:31:05.296Z,53.43
2022-08-03T16:33:50.350Z,53.50
2022-08-03T16:36:35.660Z,53.98
2022-08-03T16:39:20.803Z,53.97
2022-08-03T16:42:06.286Z,54.54
2022-08-03T16:44:51.566Z,55.01
2022-08-03T16:47:37.204Z,54.81
2022-08-03T16:50:22.101Z,55.10
2022-08-03T16:53:09.597Z,55.71
2022-08-03T16:55:55.151Z,56.16
2022-08-03T16:58:42.201Z,55.98
2022-08-03T17:01:35.695Z,56.33
2022-08-03T17:04:23.149Z,56.36
2022-08-03T17:07:08.886Z,56.37
2022-08-03T17:09:56.185Z,56.72
2022-08-03T17:12:41.831Z,57.19
2022-08-03T17:15:37.949Z,57.30
2022-08-03T17:18:37.602Z,57.55
2022-08-03T17:21:29.729Z,57.62
2022-08-03T17:24:32.805Z,57.57
2022-08-03T17:28:50.493Z,58.02
2022-08-03T17:30:50.139Z,58.38
2022-08-03T17:33:37.668Z,58.55
2022-08-03T17:36:36.977Z,58.80
2022-08-03T17:39:55.586Z,58.68
2022-08-03T17:42:36.250Z,58.81
2022-08-03T17:45:21.487Z,59.34
2022-08-03T17:48:06.837Z,59.93
2022-08-03T17:51:03.139Z,60.08
2022-08-03T17:53:57.881Z,60.07
2022-08-03T17:57:22.079Z,59.98
2022-08-03T18:00:32.766Z,59.68
2022-08-03T18:06:56.096Z,59.99
2022-08-03T18:12:54.432Z,59.91
2022-08-03T18:15:46.137Z,59.68
2022-08-03T18:18:36.014Z,59.08
2022-08-03T18:21:25.446Z,59.38
2022-08-03T18:24:11.609Z,60.18
2022-08-03T18:26:57.260Z,59.93
2022-08-03T18:29:45.645Z,59.96
2022-08-03T18:32:33.788Z,60.02
2022-08-03T18:35:19.989Z,60.26
2022-08-03T18:38:11.692Z,60.38
2022-08-03T18:41:02.102Z,60.25
2022-08-03T18:44:07.845Z,60.48
2022-08-03T18:47:51.640Z,60.42
2022-08-03T18:54:02.631Z,60.64
2022-08-03T18:56:54.007Z,61.27
2022-08-03T18:59:48.522Z,60.65
2022-08-03T19:02:58.615Z,61.07
2022-08-03T19:09:03.942Z,61.69
2022-08-03T19:12:14.560Z,61.92
2022-08-03T19:15:10.383Z,62.30
2022-08-03T19:17:58.724Z,62.93
2022-08-03T19:20:46.793Z,62.96
2022-08-03T19:23:34.016Z,62.98
2022-08-03T19:26:30.831Z,63.00
2022-08-03T19:29:18.659Z,62.96
2022-08-03T19:32:08.782Z,63.04
2022-08-03T19:34:54.975Z,63.31
2022-08-03T19:37:43.496Z,63.49
2022-08-03T19:40:32.945Z,64.13
2022-08-03T19:43:22.310Z,64.74
2022-08-03T19:46:12.961Z,65.18
2022-08-03T19:49:15.204Z,66.05
2022-08-03T19:52:03.364Z,66.52
2022-08-03T19:54:53.861Z,67.38
2022-08-03T19:57:44.046Z,68.00
2022-08-03T20:00:36.896Z,67.88
2022-08-03T20:03:27.565Z,68.25
2022-08-03T20:06:28.567Z,69.35
2022-08-03T20:09:15.246Z,71.22
2022-08-03T20:12:01.604Z,72.25
2022-08-03T20:14:48.240Z,73.27
2022-08-03T20:17:54.728Z,73.68
2022-08-03T20:20:41.567Z,74.81
2022-08-03T20:23:37.461Z,75.08
2022-08-03T20:26:23.972Z,76.09
2022-08-03T20:29:10.489Z,76.21
2022-08-03T20:31:55.826Z,76.62
2022-08-03T20:34:42.118Z,76.84
2022-08-03T20:37:27.349Z,77.29
2022-08-03T20:40:15.888Z,77.95
2022-08-03T20:43:01.731Z,78.98
2022-08-03T20:45:59.187Z,78.89
2022-08-03T20:48:53.794Z,79.19
2022-08-03T20:51:49.543Z,79.90
2022-08-03T20:54:37.902Z,80.59
2022-08-03T20:57:24.913Z,80.97
2022-08-03T21:00:16.294Z,81.78
2022-08-03T21:03:01.734Z,82.11
2022-08-03T21:05:51.648Z,82.65
2022-08-03T21:08:46.835Z,83.23
2022-08-03T21:11:41.452Z,83.57
2022-08-03T21:12:57.104Z,60.06
2022-08-03T21:13:00.574Z,60.74
2022-08-03T21:13:01.260Z,61.77
2022-08-03T21:13:06.034Z,59.68
2022-08-03T21:14:59.815Z,83.83
2022-08-03T21:17:52.606Z,84.15
2022-08-03T21:20:38.867Z,84.71
2022-08-03T21:23:34.981Z,85.31
2022-08-03T21:26:32.373Z,85.61
2022-08-03T21:29:18.260Z,85.94
2022-08-03T21:32:04.533Z,86.26
2022-08-03T21:34:52.744Z,86.59
2022-08-03T21:37:42.094Z,86.74
2022-08-03T21:40:27.091Z,87.51
2022-08-03T21:43:12.311Z,88.05
2022-08-03T21:46:03.583Z,88.46
2022-08-03T21:48:55.325Z,89.20
2022-08-03T21:51:40.583Z,89.63
2022-08-03T21:54:34.742Z,90.18
2022-08-03T21:57:24.042Z,90.59
2022-08-03T22:00:14.534Z,91.10
2022-08-03T22:03:15.205Z,91.07
2022-08-03T22:06:05.717Z,91.96
2022-08-03T22:08:52.805Z,92.32
2022-08-03T22:11:38.894Z,92.93
2022-08-03T22:14:24.111Z,92.99
2022-08-03T22:17:09.555Z,93.22
2022-08-03T22:19:56.371Z,93.34
2022-08-03T22:22:44.904Z,93.47
2022-08-03T22:25:41.898Z,93.56
2022-08-03T22:28:30.424Z,94.24
2022-08-03T22:31:30.501Z,94.71
2022-08-03T22:34:26.318Z,95.38
2022-08-03T22:37:12.203Z,95.02
2022-08-03T22:39:57.802Z,95.51
2022-08-03T22:42:45.919Z,95.92
2022-08-03T22:46:07.427Z,96.64
2022-08-03T22:48:41.226Z,96.34
2022-08-03T22:51:27.134Z,96.77
2022-08-03T22:54:12.133Z,97.61
2022-08-03T22:56:58.194Z,98.04
2022-08-03T22:59:44.880Z,98.52
2022-08-03T23:02:30.221Z,98.92
2022-08-03T23:06:01.981Z,99.46
2022-08-03T23:08:33.896Z,99.92
2022-08-03T23:11:23.334Z,99.40
2022-08-03T23:14:13.604Z,99.49
2022-08-03T23:17:04.235Z,99.70
2022-08-03T23:19:53.874Z,99.55
2022-08-03T23:22:42.883Z,99.70
2022-08-03T23:25:28.650Z,100.00
2022-08-03T23:28:18.011Z,100.00
2022-08-03T23:31:04.384Z,100.00
2022-08-03T23:34:16.749Z,100.00
2022-08-03T23:37:04.789Z,100.00
2022-08-03T23:39:49.931Z,100.00
2022-08-03T23:42:35.206Z,100.00
2022-08-03T23:45:20.965Z,100.00
2022-08-03T23:48:06.421Z,100.00
2022-08-03T23:50:58.938Z,100.00
2022-08-03T23:53:51.439Z,100.00
2022-08-03T23:57:05.253Z,100.00
